Helmsburg, Indiana
Current Conditions -  °F | °C
As of 7:55 AM on Wednesday 26 Nov 2014 (Local Time) from K1II Reporting Station
Overcast Overcast  
Wind Chill: 23°   Ceiling: 1700
Heat Index: 30°   Visibility: 10mi
Dew Point: 25°   Wind: 7mph
Humidity: 80%   Direction: 340°NNW
Pressure: 30.15"   Gusts: NA
Location:  39.27°N, 86.29°W
Report Text: K1II 261255Z AUTO 34006KT 10SM OVC017 M01/M04 A3015 RMK AO2
Loading
Personal Weather Stations






























Interactive Weather Map New forecast layout! Learn more

10-Day Weather Forecast

Advertisements
Track Severe Weather on mobile